Bridgeport, Connecticut
Current Conditions -  °F | °C
As of 12:52 PM on Friday 21 Nov 2014 (Local Time) from KBDR Reporting Station
Clear Clear  
Wind Chill: 27°   Ceiling: Unl
Heat Index: 37°   Visibility: 10mi
Dew Point: 11°   Wind: 20mph
Humidity: 34%   Direction: 300°WNW
Pressure: 30.24"   Gusts: 31mph
Location:  41.18°N, 73.19°W
Report Text: KBDR 211752Z 30017G27KT 10SM CLR 03/M12 A3024 RMK AO2 PK WND 30027/1752 SLP239 T00281117 10033 21028 53005
Loading
Personal Weather Stations






























Interactive Weather Map New forecast layout! Learn more

10-Day Weather Forecast

Advertisements
Track Severe Weather on mobile